Choose a state:
Most recent flow and stage for Indiana
(Stations highlighted in red are currently above flood stage)
USGS
station
ID
USGS station name NWS
flood
stage
(ft)
Most recent
stage
(ft)
Most recent
flow
(cfs)
Historical
peaks
(cfs)
Most recent
local
date/time
NWS
station
ID
03274650 WHITEWATER RIVER NEAR ECONOMY, IN   3.40 3.01 1,490 2022-05-19 14:45:00 EMYI3
03275000 WHITEWATER RIVER NEAR ALPINE, IN 17 5.68 642 37,100 2022-05-19 14:00:00 ALPI3
03275500 EAST FORK WHITEWATER RIVER AT RICHMOND, IN   0.75 84.6 15,000 2022-05-19 14:00:00  
03275600 EAST FORK WHITEWATER RIVER AT ABINGTON, IN 14 3.33 171 16,700 2022-05-19 14:45:00 ABTI3
03275990 BROOKVILLE LAKE AT BROOKVILLE, IN   748.31

 

  2022-05-19 14:45:00  
03276000 EAST FORK WHITEWATER RIVER AT BROOKVILLE, IN   3.79

 

36,100 2022-05-19 13:45:00 BOOI3
03276500 WHITEWATER RIVER AT BROOKVILLE, IN 20 3.79 1,000 81,800 2022-05-19 14:45:00 BRKI3
03276650 TANNERS CREEK AT LAWRENCEBURG, IN   32.90

 

  2022-05-19 14:00:00  
03291780 INDIAN-KENTUCK CREEK NEAR CANAAN, IN   3.63 38.3 8,300 2022-05-19 14:15:00 CANI3
03294000 SILVER CREEK NEAR SELLERSBURG, IN   4.75 70.8 19,600 2022-05-19 14:30:00 SELI3
03302220 BUCK CREEK NEAR NEW MIDDLETOWN, IN   1.78 78.3 20,500 2022-05-19 14:15:00 NMDI3
03302680 WEST FORK BLUE RIVER AT SALEM, IN   3.44 9.02 18,400 2022-05-19 14:15:00 SEMI3
03302800 BLUE RIVER AT FREDERICKSBURG, IN 20 3.02 178 41,700 2022-05-19 14:30:00 FRDI3
03302849 WHISKEY RUN AT MARENGO, IN   1.52

 

2,920 2022-05-19 14:30:00 MGOI3
03303000 BLUE RIVER NEAR WHITE CLOUD, IN   3.09 381 31,000 2022-05-19 14:15:00 WHCI3
03303280 OHIO RIVER AT CANNELTON DAM AT CANNELTON, IN 42 15.46 104,000 768,000 2022-05-19 14:00:00 CNNI3
03303300 MIDDLE FORK ANDERSON RIVER AT BRISTOW, IN   5.35 11.9 15,000 2022-05-19 14:30:00 BSTI3
03304300 OHIO RIVER AT NEWBURGH LOCK AND DAM, IN 38 19.27

 

2022-05-19 14:00:00 NBGI3
03322000 OHIO RIVER AT EVANSVILLE, IN 42 18.06

 

1,410,000 2022-05-19 14:00:00 EVVI3
03322011 PIGEON CREEK NEAR FORT BRANCH   2.36 54.4 3,750 2022-05-19 14:30:00 FTBI3
03322900 WABASH RIVER AT LINN GROVE, IN 11 5.26 127 14,500 2022-05-19 13:45:00 LYNI3
03323000 WABASH RIVER AT BLUFFTON, IN 10 2.09 189 25,000 2022-05-19 14:45:00 BLFI3
03323450 J. EDWARD ROUSH LAKE NEAR HUNTINGTON, IN   749.28

 

  2022-05-19 15:45:00 HUNI3
03323500 WABASH RIVER AT HUNTINGTON, IN 20 10.10

 

14,900 2022-05-19 14:00:00 HNTI3
03324000 LITTLE RIVER NEAR HUNTINGTON, IN 15 2.75 102 5,990 2022-05-19 14:00:00 LRHI3
03324200 SALAMONIE RIVER AT PORTLAND, IN 11 2.45 28.2 5,310 2022-05-19 13:45:00 PORI3
03324300 SALAMONIE RIVER NEAR WARREN, IN 12 6.65 81.2 13,500 2022-05-19 14:45:00 WRNI3
03324450 SALAMONIE LAKE AT DORA, IN   755.34

 

  2022-05-19 15:45:00 SLAI3
03324500 SALAMONIE RIVER AT DORA, IN 11 2.99

 

16,500 2022-05-19 14:15:00 SALI3
03325000 WABASH RIVER AT WABASH, IN 14 3.73 602 90,000 2022-05-19 14:30:00 WABI3
03325519 MISSISSINEWA RIVER AT RIDGEVILLE, IN 10 4.12 44.4 4,230 2022-05-19 14:00:00 RIDI3
03326500 MISSISSINEWA RIVER AT MARION, IN 12 1.67 300 25,000 2022-05-19 14:45:00 MROI3
03326950 MISSISSINEWA LAKE AT PEORIA, IN   737.25

 

  2022-05-19 15:45:00 MSSI3
03327000 MISSISSINEWA RIVER AT PEORIA, IN 11 1.64

 

28,000 2022-05-19 14:00:00 MISI3
03327500 WABASH RIVER AT PERU, IN 20 6.25 1,190 115,000 2022-05-19 14:30:00 PRUI3
03328000 EEL RIVER AT NORTH MANCHESTER, IN 11 3.66 310 10,400 2022-05-19 14:30:00 NMCI3
03328500 EEL RIVER NEAR LOGANSPORT, IN 9 3.96 689 17,700 2022-05-19 14:45:00 ADMI3
03329000 WABASH RIVER AT LOGANSPORT, IN 15 4.45 2,620 140,000 2022-05-19 14:15:00 LGNI3
03329500 WABASH RIVER AT DELPHI, IN   4.42

 

145,000 2022-05-19 14:15:00 DLHI3
03329700 DEER CREEK NEAR DELPHI, IN 11 2.56 195 18,700 2022-05-19 14:30:00 DCDI3
03330241 TIPPECANOE RIVER AT NORTH WEBSTER, IN 6 3.59 49.6 446 2022-05-19 14:45:00 NWTI3
03330500 TIPPECANOE RIVER AT OSWEGO, IN 7.5 6.24 131 1,050 2022-05-19 14:45:00 OWGI3
03331040 PIKE LAKE AT WARSAW, IN   6.02

 

  2022-05-19 14:00:00 PIKI3
03331224 SHATTO DITCH NEAR MENTONE, IN   4.46 3.77 192 2022-05-19 14:00:00  
03331440 LAKE MAXINKUCKEE AT CULVER, IN   4.08

 

  2022-05-19 14:00:00 MAXI3
03331500 TIPPECANOE RIVER NEAR ORA, IN 12 7.77 930 9,580 2022-05-19 14:30:00 ORAI3
03331753 TIPPECANOE RIVER AT WINAMAC, IN 10 5.89 1,050 8,690 2022-05-19 14:30:00 WMCI3
03332345 TIPPECANOE RIVER AT BUFFALO, IN   7.93 1,430 11,100 2022-05-19 14:30:00 BLOI3
03332349 BIG MONON DITCH AT CR200N NEAR MEDARYVILLE, IN   7.06 84.1 914 2022-05-19 14:00:00  
03332555 TIPPECANOE RIVER AT NORWAY, IN 11.5 8.48 1,490 23,700 2022-05-19 14:45:00 TCNI3
03332605 TIPPECANOE RIVER BELOW OAKDALE DAM, IN 14 6.16 1,750 24,300 2022-05-19 14:30:00 OAKI3
03333050 TIPPECANOE RIVER NEAR DELPHI, IN 8 3.38 1,700 37,600 2022-05-19 14:45:00 DLPI3
03333450 WILDCAT CREEK NEAR JEROME, IN 9 2.11 93.9 9,580 2022-05-19 14:15:00 JRMI3
03333700 WILDCAT CREEK AT KOKOMO, IN 10 2.83 221 10,600 2022-05-19 14:45:00 OKKI3
03334000 WILDCAT CREEK AT OWASCO, IN 9 2.87 270 19,300 2022-05-19 14:00:00 OWCI3
03334500 SOUTH FORK WILDCAT CREEK NEAR LAFAYETTE, IN 10 2.98 202 17,900 2022-05-19 14:15:00 SFWI3
03335000 WILDCAT CREEK NEAR LAFAYETTE, IN 10 4.29 618 25,000 2022-05-19 14:45:00 LYTI3
03335500 WABASH RIVER AT LAFAYETTE, IN 11 5.10 5,780 190,000 2022-05-19 14:30:00 LAFI3
033356848 BIG PINE CREEK AT PINE VILLAGE, IN 11 5.02 118 12,700 2022-05-19 13:45:00 BPCI3
03335960 REDWOOD CREEK NEAR MARSHFIELD, IN   5.31 3.95 686 2022-05-19 14:00:00  
03336000 WABASH RIVER AT COVINGTON, IN 16 9.40 7,290 200,000 2022-05-19 14:45:00 CVGI3
03339280 PRAIRIE CREEK NEAR LEBANON, IN 9 5.34 29.6 2,720 2022-05-19 14:15:00 PCLI3
03339305 SUGAR CREEK NEAR THORNTOWN, IN   3.12 194 5,770 2022-05-19 14:45:00 SGTI3
03339500 SUGAR CREEK AT CRAWFORDSVILLE, IN 15 4.15 389 36,000 2022-05-19 14:45:00 CRWI3
03340500 WABASH RIVER AT MONTEZUMA, IN 14 9.05 10,900 230,000 2022-05-19 14:45:00 MTZI3
03340800 BIG RACCOON CREEK NEAR FINCASTLE, IN 11 3.18 222 39,900 2022-05-19 14:30:00 FINI3
03340870 CECIL M. HARDEN LAKE AT FERNDALE, IN 690 663.98

 

  2022-05-19 15:15:00 CHLI3
03340900 BIG RACCOON CREEK AT FERNDALE, IN   8.36

 

40,500 2022-05-19 14:30:00 FRNI3
03341300 BIG RACCOON CREEK AT COXVILLE, IN 14 8.72 1,180 108,000 2022-05-19 14:45:00 COXI3
03341500 WABASH RIVER AT TERRE HAUTE, IN 16.5 10.24 12,600 245,000 2022-05-19 14:30:00 TERI3
03342000 WABASH RIVER AT RIVERTON, IN 15 10.69 15,500 250,000 2022-05-19 14:00:00 RVTI3
03342500 BUSSERON CREEK NEAR CARLISLE, IN 16 2.76 110 8,800 2022-05-19 14:00:00 CRLI3
03343010 WABASH RIVER AT MEMORIAL BRIDGE AT VINCENNES, IN 16 9.44 16,800 97,800 2022-05-19 14:45:00 VCNI3
03347000 WHITE RIVER AT MUNCIE, IN 9 4.57 193 20,000 2022-05-19 14:30:00 MIEI3
03348000 WHITE RIVER AT ANDERSON, IN 10 4.99 383 28,000 2022-05-19 14:30:00 ANDI3
03348130 WHITE RIVER AT RAIBLE AVENUE AT ANDERSON, IN 10 3.14 470 15,200 2022-05-19 14:00:00 ADNI3
03348350 PIPE CREEK AT FRANKTON, IN 10 3.89 45.1 5,630 2022-05-19 14:30:00 FTNI3
033483827 BIG DUCK CREEK AT 14TH STREET PARK AT ELWOOD, IN 8 3.87 5.83 1,120 2022-05-19 14:15:00 BDCI3
03348502 WHITE RIVER NEAR STRAWTOWN, IN 12 4.69

 

  2022-05-19 14:30:00 WRSI3
03349000 WHITE RIVER AT NOBLESVILLE, IN 14 4.91 710 27,000 2022-05-19 14:45:00 NBLI3
03349210 CICERO CREEK AT TIPTON, IN 10 3.59 55.4 6,150 2022-05-19 14:30:00 CCTI3
03349510 CICERO CREEK AT ARCADIA, IN 9 3.53 82.2 8,050 2022-05-19 14:30:00 CCAI3
03350400 MORSE RESERVOIR AT NOBLESVILLE, IN   9.67

 

  2022-05-19 14:45:00 NMSI3
03350500 CICERO CREEK AT NOBLESVILLE, IN   4.31 132 9,800 2022-05-19 14:45:00 CCNI3
03350655 STONY CREEK AT FISHERSBURG, IN 8 3.96 10.9 1,510 2022-05-19 13:45:00 SCFI3
03350660 WILLIAM LOCK DITCH NEAR DURBIN, IN 12 6.78 12.0 1,100 2022-05-19 14:00:00 WLDI3
03350700 STONY CREEK NEAR NOBLESVILLE, IN 6 2.23 55.9 2,680 2022-05-19 14:15:00 SCNI3
03350800 WHITE RIVER AT 146TH ST NEAR NOBLESVILLE, IN 13 4.19 1,000 24,700 2022-05-19 13:45:00 WHNI3
03351000 WHITE RIVER NEAR NORA, IN 11 3.54 956 58,500 2022-05-19 14:00:00 NORI3
03351005 WHITE RIVER AT RAVENSWOOD, IN 9 3.21

 

  2022-05-19 14:45:00 WRRI3
03351007 HOLLY CREEK ABOVE 86TH STREET AT INDIANAPOLIS, IN   4.22

 

  2022-05-19 14:30:00 CLGI3
03351060 WHITE RIVER AT BROAD RIPPLE, IN 6 3.36

 

  2022-05-19 14:45:00 BRDI3
03351071 WHITE RIVER BELOW DAM AT BROAD RIPPLE, IN 8.5 2.20

 

  2022-05-19 14:15:00 BBDI3
03351072 WILLIAMS CREEK AT 96TH STREET, INDIANAPOLIS, IN 9 3.46 13.6 2,660 2022-05-19 14:45:00 WCRI3
03351201 WHITE RIVER AT INDIANAPOLIS MUSEUM OF ART, IN 12 4.69 989 27,700 2022-05-19 14:15:00 IMAI3
03351310 CROOKED CREEK AT INDIANAPOLIS, IN 8 3.17 23.6 5,500 2022-05-19 14:15:00 CCII3
03351350 WHITE RIVER AT 16TH STREET AT INDIANAPOLIS, IN 17 6.96 976 20,000 2022-05-19 14:30:00 WHSI3
03351500 FALL CREEK NEAR FORTVILLE, IN 8 2.26 169 10,900 2022-05-19 14:45:00 FCFI3
03351700 GEIST RESERVOIR AT INDIANAPOLIS, IN   10.03

 

  2022-05-19 14:45:00 OLNI3
03351710 FALL CREEK AT 79TH ST AT INDIANAPOLIS, IN   5.62 Rat   2022-05-19 14:30:00  
033521504 SAND CREEK AT 116TH STREET AT FISHERS, IN 5.5 2.15 11.3 503 2022-05-19 14:15:00 SDFI3
03352162 MUD CREEK AT FISHERS, IN 7 2.93 23.3 1,730 2022-05-19 14:45:00 MCFI3
03352500 FALL CREEK AT MILLERSVILLE, IN 10 2.84 289 22,000 2022-05-19 14:45:00 MLRI3
03352690 LAKE MAXINHALL AT INDIANAPOLIS, IN   4.91

 

  2022-05-19 14:00:00  
03352695 HERON LAKE AT INDIANAPOLIS, IN   6.97

 

  2022-05-19 14:00:00  
03352875 FALL CREEK AT 16TH STREET AT INDIANAPOLIS, IN 12 7.53 369 6,910 2022-05-19 14:15:00 FCSI3
03352953 WHITE RIVER AT MICHIGAN STREET AT INDIANAPOLIS, IN 16 7.86 1,300 36,700 2022-05-19 14:15:00 IUPI3
03352972 POGUES RUN ABOVE DAM AT INDIANAPOLIS, IN 19.5 3.95

 

  2022-05-19 14:00:00 PRDI3
03352988 POGUES RUN AT VERMONT STREET AT INDIANAPOLIS, IN 9 1.69 7.03 1,250 2022-05-19 14:45:00 PRVI3
03353000 WHITE RIVER AT INDIANAPOLIS, IN 16 4.57 1,400 70,000 2022-05-19 14:45:00 INDI3
03353120 PLEASANT RUN AT ARLINGTON AV AT INDIANAPOLIS, IN 8 3.12 4.90 2,600 2022-05-19 14:15:00 PRII3
033531908 GERMANIA CREEK AT WEST STREET AT INDIANAPOLIS, IN   7.24

 

  2022-05-19 14:30:00 GRMI3
03353200 EAGLE CREEK AT ZIONSVILLE, IN 9 1.85 73.8 17,400 2022-05-19 14:45:00 ZONI3
03353240 EAGLE CREEK AT 79TH STREET AT INDIANAPOLIS, IN 11.5 5.97

 

  2022-05-19 14:30:00 ETPI3
03353415 SCHOOL BRANCH AT MALONEY ROAD NEAR BROWNSBURG, IN   2.06 2.29 343 2022-05-19 14:15:00 SBMI3
03353420 SCHOOL BRANCH AT CR750N AT BROWNSBURG, IN   1.24 3.60 557 2022-05-19 13:45:00 SBCI3
03353450 EAGLE CREEK RESERVOIR NEAR INDIANAPOLIS, IN 811.5 790.62

 

  2022-05-19 14:30:00 ECRI3
03353451 EAGLE CREEK BELOW RESERVOIR AT INDIANAPOLIS, IN   2.83 7.60   2022-05-19 14:30:00 ECRI3
03353460 EAGLE CREEK AT CLERMONT, IN 9 2.65 144 13,000 2022-05-19 14:15:00 ECCI3
03353494 FARLEY CREEK ABOVE 10TH STREET AT INDIANAPOLIS, IN 7.3 3.68

 

  2022-05-19 14:30:00 FARI3
03353500 EAGLE CREEK AT INDIANAPOLIS, IN 9 1.93 175 28,800 2022-05-19 14:45:00 INSI3
03353600 LITTLE EAGLE CREEK AT SPEEDWAY, IN 6 -0.59 Rat 3,870 2022-05-19 14:30:00 SPEI3
033536062 EAGLE CREEK AT RAYMOND ST AT INDIANAPOLIS, IN 14 2.65

 

  2022-05-19 14:30:00 ERSI3
03353611 WHITE R. AT STOUT GEN. STN. AT INDIANAPOLIS, IN 10 3.19 1,910 51,500 2022-05-19 14:45:00 STTI3
03353620 LICK CREEK AT INDIANAPOLIS, IN 7 1.26 10.8 2,710 2022-05-19 14:00:00 LCII3
03353633 DERBYSHIRE CK ABOVE MCFARLAND RD AT SOUTHPORT, IN   3.59

 

  2022-05-19 14:30:00 HOMI3
03353638 LITTLE BUCK CREEK AT TIBBS AV NR INDIANAPOLIS, IN   3.68 9.42 1,060 2022-05-19 14:45:00 LBKI3
03353670 WHITE LICK CREEK NEAR BROWNSBURG, IN 9 4.50 29.7 2,020 2022-05-19 14:45:00 BROI3
03353700 WEST FORK WHITE LICK CREEK AT DANVILLE, IN   5.08 46.0 7,090 2022-05-19 14:45:00 WWDI3
03353800 WHITE LICK CREEK AT MOORESVILLE, IN 17 8.09 371 22,000 2022-05-19 14:30:00 MOOI3
03353910 EAST FORK WHITE LICK CREEK AT MOORESVILLE, IN 10 4.09 76.2 3,640 2022-05-19 14:30:00 EFWI3
03354000 WHITE RIVER NEAR CENTERTON, IN 12 2.91 2,960 90,000 2022-05-19 14:00:00 CNTI3
03357000 WHITE RIVER AT SPENCER, IN 14 5.18 2,940 100,000 2022-05-19 14:30:00 SPNI3
03357330 BIG WALNUT CREEK NEAR ROACHDALE, IN 12 5.92 213 18,600 2022-05-19 14:15:00 RCHI3
03357350 PLUM CREEK NEAR BAINBRIDGE, IN 4 2.33 5.05 1,000 2022-05-19 14:15:00 PCBI3
03357500 BIG WALNUT CREEK NEAR REELSVILLE, IN 12 3.86

 

30,700 2022-05-19 14:30:00 RLVI3
03358000 MILL CREEK NEAR CATARACT, IN 15 5.81 269 12,200 2022-05-19 14:30:00 CATI3
03358900 CAGLES MILL LAKE NEAR MANHATTAN, IN 704 643.56

 

  2022-05-19 15:15:00 CAGI3
03359000 MILL CREEK NEAR MANHATTAN, IN 14 10.30

 

8,960 2022-05-19 14:15:00 MANI3
03360000 EEL RIVER AT BOWLING GREEN, IN 15 7.85 1,940 46,000 2022-05-19 14:30:00 BOLI3
03360500 WHITE RIVER AT NEWBERRY, IN 13 5.70 5,530 138,000 2022-05-19 14:30:00 NWBI3
03360590 EPSOM LATERAL NEAR PLAINVILLE, IN   474.05

 

  2022-03-08 16:32:00  
03360600 SMOTHERS CREEK NR PLAINVILLE, IN 16 5.48 24.2 1,610 2022-05-19 13:45:00 SCPI3
03360652 BEE HUNTER DITCH AT LINTON, IN   4.20 0.93 388 2022-05-19 14:45:00 BHDI3
03360730 WHITE RIVER NEAR EDWARDSPORT, IN 15 9.57 6,550 61,400 2022-05-19 14:30:00 EDWI3
03361000 BIG BLUE RIVER AT CARTHAGE, IN 7 0.83

 

12,900 2022-05-19 14:45:00 CARI3
03361440 LITTLE BLUE RIVER AT SHELBYVILLE, IN 7.5 4.67 71.9 6,350 2022-05-19 14:45:00 LBRI3
03361500 BIG BLUE RIVER AT SHELBYVILLE, IN 13 5.42 397 17,400 2022-05-19 14:45:00 SBVI3
03361605 BRANDYWINE CREEK AT GREENFIELD, IN 9 4.34 9.23 1,590 2022-05-19 14:30:00 BCGI3
03361650 SUGAR CREEK AT NEW PALESTINE, IN 8 3.02 57.7 5,020 2022-05-19 14:30:00 NPLI3
03361850 BUCK CREEK AT ACTON, IN 9 2.26 62.8 7,140 2022-05-19 14:00:00 ACTI3
03361872 SUGAR CREEK NEAR BOGGSTOWN, IN   4.37 173   2022-05-19 14:30:00 SCBI3
03362000 YOUNGS CREEK NEAR EDINBURGH, IN 7 1.99 90.8 20,500 2022-05-19 14:15:00 AMTI3
03362500 SUGAR CREEK NEAR EDINBURGH, IN 10 4.59 304 39,900 2022-05-19 14:00:00 EDNI3
03363000 DRIFTWOOD RIVER NEAR EDINBURGH, IN 11 3.19 873 40,500 2022-05-19 14:30:00 DREI3
03363220 FLATROCK RIVER NEAR RALEIGH, IN 7 3.82

 

  2022-05-19 14:45:00 RALI3
03363400 FLATROCK RIVER NR RUSHVILLE, IN 11 5.15

 

  2022-05-19 14:30:00 RSHI3
03363500 FLATROCK RIVER AT ST. PAUL, IN 6 1.28 272 18,500 2022-05-19 14:45:00 STPI3
03363900 FLATROCK RIVER AT COLUMBUS, IN 11 3.60 304 62,500 2022-05-19 14:30:00 FLCI3
03364000 EAST FORK WHITE RIVER AT COLUMBUS, IN 9 0.51 1,180 100,000 2022-05-19 14:00:00 BAKI3
03364042 HAW CREEK AT HOPE, IN 9 2.08 0.88 4,360 2022-05-19 14:00:00 HCHI3
03364200 HAW CREEK NEAR CLIFFORD, IN 12 3.07 15.3 4,500 2022-05-19 14:30:00 HCCI3
03364340 HAW CREEK AT EAST COLUMBUS, IN 12.5 2.82

 

  2022-05-19 14:30:00 HCEI3
03364500 CLIFTY CREEK AT HARTSVILLE, IN 9 1.04 34.9 16,200 2022-05-19 14:00:00 CCHI3
03364650 CLIFTY CREEK NEAR COLUMBUS, IN 17 4.77 73.5 21,600 2022-05-19 14:15:00 CCCI3
03365500 EAST FORK WHITE RIVER AT SEYMOUR, IN 12 4.51 1,680 120,000 2022-05-19 13:45:00 SERI3
03366500 MUSCATATUCK RIVER NEAR DEPUTY, IN 25 3.56 75.0 52,200 2022-05-19 14:30:00 DEPI3
03368000 BRUSH CREEK NEAR NEBRASKA, IN 8 1.93 3.31 9,360 2022-05-19 14:15:00 NEBI3
03369500 VERNON FORK MUSCATATUCK RIVER AT VERNON, IN 17 2.80 29.9 56,800 2022-05-19 14:30:00 VRNI3
03371500 EAST FORK WHITE RIVER NEAR BEDFORD, IN 20 6.47 2,280 155,000 2022-05-19 14:30:00 BEDI3
03371600 SOUTH FORK SALT CREEK AT KURTZ, IN   3.38 13.3 6,400 2022-05-19 14:45:00  
03371650 NORTH FORK SALT CREEK AT NASHVILLE, IN 14 5.40 32.8 7,200 2022-05-19 14:45:00 NFSI3
03372400 MONROE LAKE NEAR HARRODSBURG, IN 556 541.58

 

  2022-05-19 15:25:00 MONI3
03372500 SALT CREEK NEAR HARRODSBURG, IN 20 16.69

 

22,000 2022-05-19 14:45:00 HDBI3
03373500 EAST FORK WHITE RIVER AT SHOALS, IN 20 5.13 4,830 160,000 2022-05-19 14:30:00 SHLI3
03373508 BEAVER CREEK NEAR SHOALS, IN 7 2.55 12.7 3,350 2022-05-19 14:45:00 BCSI3
03373560 LOST RIVER NEAR PROSPECT, IN   8.74 142 6,610 2022-05-19 14:15:00 PSPI3
03373610 LICK CREEK AT PAOLI, IN   3.36 25.9 3,140 2022-05-19 14:30:00 POLI3
03373980 WHITE RIVER ABOVE PETERSBURG, IN 16 8.54

 

  2022-05-19 14:30:00 PETI3
03374000 WHITE RIVER AT PETERSBURG, IN 16 8.98 14,600 235,000 2022-05-19 14:30:00 PTRI3
03374100 WHITE RIVER AT HAZLETON, IN 16 9.27 14,600 138,000 2022-05-19 14:45:00 HZNI3
03374498 PATOKA LAKE NEAR CUZCO, IN 548 537.58

 

  2022-05-19 15:15:00 PRLI3
03374500 PATOKA RIVER NEAR CUZCO, IN   3.49

 

14,700 2022-05-19 15:45:00 PLTI3
03375500 PATOKA RIVER AT JASPER, IN   6.07 83.7 16,000 2022-05-19 14:15:00 JPRI3
03376300 PATOKA RIVER AT WINSLOW, IN   10.63 373 15,500 2022-05-19 14:30:00 WNSI3
03376500 PATOKA RIVER NEAR PRINCETON, IN 18 6.37 637 18,700 2022-05-19 14:45:00 PNTI3
03377500 WABASH RIVER AT MT. CARMEL, IL 19 10.35 34,500 428,000 2022-05-19 14:45:00 MCRI2
03378500 WABASH RIVER AT NEW HARMONY, IN 15 8.24 35,700 317,000 2022-05-19 13:30:00 NHRI3
03378550 BIG CREEK NEAR WADESVILLE, IN   2.58 35.6 19,000 2022-05-19 14:15:00 WADI3
04092677 GRAND CALUMET RIVER AT INDUSTRIAL HWY AT GARY, IN   2.16 406 1,480 2022-05-19 14:30:00  
04092750 INDIANA HARBOR CANAL AT EAST CHICAGO, IN 13 10.82 127 11,700 2022-05-19 14:00:00 IHCI3
04092944 DEEP RIVER AT GRAND BLVD AT MERRILLVILLE, IN   3.70

 

  2022-05-19 14:15:00 MDRI3
04092964 TURKEY CREEK AT JOLIET ST AT SCHERERVILLE, IN   3.85

 

  2022-05-19 14:15:00 TCSI3
04092977 TURKEY CREEK AT 61ST AV AT MERRILLVILLE, IN   5.79

 

  2022-05-19 14:15:00 MTCI3
04093000 DEEP RIVER AT LAKE GEORGE OUTLET AT HOBART, IN 18 5.16 66.4 5,280 2022-05-19 14:30:00 HLGI3
04093100 DEEP RIVER NEAR LIVERPOOL, IN 17.5 6.38

 

  2022-05-19 14:15:00 LIVI3
04093176 LITTLE CALUMET RIVER AT GRANT ST AT GARY, IN 11 6.35

 

  2022-05-19 14:15:00 GRGI3
04093250 LITTLE CALUMET RIVER NEAR LAKE STATION, IN 13 3.77

 

  2022-05-19 14:15:00 LAKI3
04093503 BURNS DITCH AT USHWY 20 AT LAKE STATION, IN   8.15

 

  2022-05-19 14:15:00  
04094000 LITTLE CALUMET RIVER AT PORTER, IN 8 3.66 66.1 5,320 2022-05-19 14:45:00 PRTI3
04094400 SALT CREEK AT VALPARAISO, IN 8 3.33 12.3 639 2022-05-19 14:00:00 SCRI3
04095090 PORTAGE-BURNS WATERWAY AT PORTAGE, IN   5.89 255 16,000 2022-05-19 14:30:00 PBPI3
04095300 TRAIL CREEK AT MICHIGAN CITY, IN   2.36 62.7 4,240 2022-05-19 14:30:00 TCRI3
04095380 TRAIL CREEK AT MICHIGAN CITY HARBOR, IN   7.37 -306 4,330 2022-05-19 14:35:00 MGNI3
04099510 PIGEON CREEK NR ANGOLA, IN 11 6.52 92.2 1,000 2022-05-19 14:15:00 AQPI3
04099750 PIGEON RIVER NEAR SCOTT, IN 6 4.49 348 2,450 2022-05-19 14:15:00 SCOI3
04100180 SYLVAN LAKE AT ROME CITY, IN   9.54

 

  2022-05-19 14:00:00 SYLI3
04100220 WALDRON LAKE NEAR COSPERVILLE, IN   6.64

 

889 2022-05-19 14:00:00 WLKI3
04100222 NB ELKHART RIVER AT COSPERVILLE, IN 6 4.77 197 839 2022-05-19 14:30:00 CPEI3
04100500 ELKHART RIVER AT GOSHEN, IN 7 3.50 776 6,360 2022-05-19 14:45:00 GSHI3
04101000 ST. JOSEPH RIVER AT ELKHART, IN 24 20.06 3,990 26,000 2022-05-19 14:30:00 EKMI3
04101225 ST. JOSEPH RIVER AT SOUTH BEND, IN 5.5 1.81 4,190 13,600 2022-05-19 14:15:00 SBNI3
04101370 JUDY CREEK NEAR SOUTH BEND, IN   2.39 22.9 500 2022-05-19 11:30:00 JCRI3
04177700 HAMILTON LAKE AT HAMILTON, IN   8.69

 

  2022-05-19 14:00:00 HMLI3
04177720 FISH CREEK AT HAMILTON, IN 9 4.21 37.0 1,510 2022-05-19 14:45:00 FLTI3
04179520 CEDAR CREEK AT 18TH STREET AT AUBURN, IN 9 3.20 70.5 2,290 2022-05-19 14:00:00 ABBI3
04180000 CEDAR CREEK NEAR CEDARVILLE, IN 18 2.08 169 5,750 2022-05-19 14:30:00 CDRI3
04180500 ST. JOSEPH RIVER NEAR FORT WAYNE, IN 12 3.24 1,000 16,500 2022-05-19 14:15:00 ROOI3
04180610 ST. JOSEPH R AT PARNELL AV AT FORT WAYNE, IN   7.88 780 11,500 2022-05-19 14:45:00 SJRI3
04181120 ST. MARYS RIVER AT PLEASANT MILLS, IN   5.28 144 6,640 2022-05-19 14:00:00 PLMI3
04181500 ST. MARYS RIVER AT DECATUR, IN 17 4.21 166 15,000 2022-05-19 14:00:00 DCRI3
04181635 GERKE DITCH NEAR DECATUR, IN   6.25 1.34 695 2022-05-19 14:00:00  
04181755 NICKELSEN CREEK NEAR DECATUR, IN   7.56 2.31 418 2022-05-19 14:00:00  
04182000 ST. MARYS RIVER NEAR FORT WAYNE, IN 14 2.15 206 16,000 2022-05-19 14:30:00 SASI3
04182755 JUNK DITCH AT FORT WAYNE, IN   3.39 1.68 117 2022-05-19 14:15:00 JUNI3
04182769 ST. MARYS RIVER AT MAIN ST. AT FORT WAYNE, IN   8.60 Eqp 13,300 2022-05-19 14:00:00 FWAI3
04182808 SPY RUN CREEK NEAR PARK DRIVE AT FORT WAYNE, IN 11 6.02 7.04 1,910 2022-05-19 14:00:00 SPYI3
04182830 MAUMEE RIVER AT COLUMBIA ST AT FORT WAYNE, IN   13.33

 

  2022-05-19 14:00:00 CMBI3
04182900 MAUMEE RIVER AT FORT WAYNE, IN 17 3.60 1,070 18,400 2022-05-19 14:00:00 FTWI3
04182950 MAUMEE RIVER AT COLISEUM BLVD AT FORT WAYNE, IN 17 5.01 1,320 21,800 2022-05-19 14:15:00 COMI3
04183000 MAUMEE RIVER AT NEW HAVEN, IN 17 5.30 1,230 26,600 2022-05-19 14:30:00 NHVI3
04183038 BLACK CREEK NEAR HARLAN, IN   2.08 5.21 709 2022-05-19 14:00:00  
05515500 KANKAKEE RIVER AT DAVIS, IN 10 6.78 578 2,040 2022-05-19 14:00:00 DAVI3
05516500 YELLOW RIVER AT PLYMOUTH, IN 13 5.35 211 5,670 2022-05-19 14:45:00 PYMI3
05516665 YELLOW RIVER NEAR OAK GROVE, IN   4.65 278 6,590 2022-05-19 14:45:00 OGRI3
05517000 YELLOW RIVER AT KNOX, IN 10 5.62 374 5,900 2022-05-19 14:45:00 KNXI3
05517500 KANKAKEE RIVER AT DUNNS BRIDGE, IN 10 5.21 1,430 5,870 2022-05-19 14:00:00 DBRI3
05517530 KANKAKEE RIVER NR KOUTS, IN 11 5.99 1,460 6,420 2022-05-19 14:00:00 KTSI3
05518000 KANKAKEE RIVER AT SHELBY, IN 10.5 6.98 2,080 7,650 2022-05-19 14:45:00 SLBI3
05520980 IROQUOIS RIVER NEAR PARR, IN   4.52 13.8 159 2022-05-19 14:15:00  
05522500 IROQUOIS RIVER AT RENSSELAER, IN 12 5.14 159 3,010 2022-05-19 14:30:00 RZLI3
05523865 CARPENTER CREEK AT REMINGTON, IN 9 3.59 10.7 2,380 2022-05-19 14:45:00 CCRI3
05524500 IROQUOIS RIVER NEAR FORESMAN, IN 18 7.99 231 6,480 2022-05-19 14:45:00 FSMI3
05524546 HUNTER DITCH AT GOODLAND, IN   5.30 3.40 1,140 2022-05-19 13:45:00 HTDI3
05536160 LITTLE CALUMET RIVER NEAR HAMMOND, IN 14 5.96

 

  2022-05-19 14:30:00 HMMI3
05536165 LITTLE CALUMET RIVER AT HIGHLAND, IN 15 8.25

 

2022-05-19 14:15:00 HGLI3
05536179 HART DITCH AT DYER, IN 12 2.33 17.0 3,110 2022-05-19 14:00:00 HDDI3
05536190 HART DITCH AT MUNSTER, IN 6 0.87 50.0 3,840 2022-05-19 14:45:00 MNTI3
05536191 LITTLE CALUMET R AT NORTHCOTE AV AT MUNSTER, IN 18 10.24

 

  2022-05-19 14:00:00 LCNI3
05536195 LITTLE CALUMET RIVER AT MUNSTER, IN 12 5.68 13.1 1,510 2022-05-19 14:00:00 LCMI3
05536356 GRAND CALUMET RIVER AT COLUMBIA AV AT HAMMOND, IN 9.5 7.08

 

  2022-05-19 14:00:00 HGCI3
411228084541701 OVERLAND FLOW WEST OF BULL RAPIDS RD NR HARLAN, IN   0.00 0.00028   2022-05-19 14:00:00  
411228084541702 DRAIN TILE WEST OF BULL RAPIDS RD NR HARLAN, IN   0.04 0.00096   2022-05-19 14:00:00  
411229084541101 OVERLAND FLOW EAST OF BULL RAPIDS RD NR HARLAN, IN   -0.03 0.0000   2022-05-19 14:00:00  
411229084541102 DRAIN TILE EAST OF BULL RAPIDS RD NR HARLAN, IN   0.38 0.10232   2022-05-19 13:45:00  
413028087303601 HART DITCH AT DYER, IN (LCRDAN)   2.32

 

  2022-05-19 14:15:00  
413339087223001 LITTLE CALUMET RIVER AT BURR STREET AT GARY, IN 11 5.28

 

  2022-05-19 14:15:00 GBSI3